createdAt,value
2022-12-31T00:01:29.506Z,97140.54
2022-12-31T00:03:56.933Z,97141.11
2022-12-31T00:06:28.130Z,97143.04
2022-12-31T00:08:56.921Z,97148.46
2022-12-31T00:11:25.291Z,97150.11
2022-12-31T00:13:52.872Z,97153.42
2022-12-31T00:16:24.375Z,97158.77
2022-12-31T00:18:55.976Z,97162.70
2022-12-31T00:21:22.534Z,97163.09
2022-12-31T00:23:49.255Z,97164.46
2022-12-31T00:26:20.242Z,97169.68
2022-12-31T00:28:48.036Z,97172.98
2022-12-31T00:31:17.999Z,97173.62
2022-12-31T00:33:45.409Z,97176.42
2022-12-31T00:36:15.798Z,97176.59
2022-12-31T00:38:45.563Z,97178.16
2022-12-31T00:41:13.182Z,97176.75
2022-12-31T00:43:39.661Z,97181.73
2022-12-31T00:46:06.797Z,97180.67
2022-12-31T00:48:34.702Z,97183.54
2022-12-31T00:51:03.835Z,97183.27
2022-12-31T00:53:30.519Z,97178.35
2022-12-31T00:56:14.407Z,97174.02
2022-12-31T00:58:40.961Z,97174.33
2022-12-31T01:01:12.599Z,97180.52
2022-12-31T01:03:39.133Z,97181.73
2022-12-31T01:06:06.263Z,97184.06
2022-12-31T01:08:32.950Z,97180.09
2022-12-31T01:11:20.295Z,97183.67
2022-12-31T01:13:52.052Z,97183.82
2022-12-31T01:16:22.616Z,97184.65
2022-12-31T01:18:50.218Z,97179.51
2022-12-31T01:21:17.865Z,97181.19
2022-12-31T01:23:44.649Z,97184.77
2022-12-31T01:26:13.676Z,97182.36
2022-12-31T01:28:40.717Z,97181.98
2022-12-31T01:31:10.762Z,97183.88
2022-12-31T01:33:38.060Z,97184.67
2022-12-31T01:36:08.358Z,97191.04
2022-12-31T01:38:35.963Z,97187.97
2022-12-31T01:41:03.696Z,97179.70
2022-12-31T01:44:08.393Z,97177.13
2022-12-31T01:46:41.229Z,97181.80
2022-12-31T01:49:18.707Z,97183.39
2022-12-31T01:51:50.039Z,97192.30
2022-12-31T01:54:20.497Z,97190.10
2022-12-31T01:56:49.407Z,97185.73
2022-12-31T01:59:18.141Z,97184.27
2022-12-31T02:01:47.594Z,97182.46
2022-12-31T02:04:15.660Z,97186.23
2022-12-31T02:06:50.541Z,97192.00
2022-12-31T02:09:19.138Z,97192.70
2022-12-31T02:11:45.577Z,97196.41
2022-12-31T02:14:16.643Z,97199.80
2022-12-31T02:17:05.047Z,97192.16
2022-12-31T02:20:00.196Z,97192.05
2022-12-31T02:22:57.094Z,97191.77
2022-12-31T02:25:51.955Z,97190.99
2022-12-31T02:28:57.421Z,97193.44
2022-12-31T02:31:32.234Z,97191.05
2022-12-31T02:34:36.692Z,97187.95
2022-12-31T02:37:09.052Z,97186.13
2022-12-31T02:39:36.607Z,97182.67
2022-12-31T02:42:03.308Z,97188.45
2022-12-31T02:44:33.701Z,97188.31
2022-12-31T02:47:26.220Z,97194.41
2022-12-31T02:50:28.852Z,97194.60
2022-12-31T02:53:18.908Z,97195.91
2022-12-31T02:55:57.125Z,97197.48
2022-12-31T02:59:09.127Z,97199.84
2022-12-31T03:01:59.461Z,97195.96
2022-12-31T03:04:35.531Z,97200.20
2022-12-31T03:07:08.175Z,97195.87
2022-12-31T03:09:36.019Z,97195.45
2022-12-31T03:12:20.020Z,97193.13
2022-12-31T03:14:46.977Z,97189.30
2022-12-31T03:17:13.838Z,97183.99
2022-12-31T03:20:00.485Z,97190.71
2022-12-31T03:22:27.340Z,97191.05
2022-12-31T03:25:30.790Z,97191.45
2022-12-31T03:27:58.214Z,97197.92
2022-12-31T03:30:25.373Z,97198.30
2022-12-31T03:32:52.666Z,97200.50
2022-12-31T03:35:20.626Z,97193.81
2022-12-31T03:37:48.010Z,97190.88
2022-12-31T03:40:16.160Z,97186.40
2022-12-31T03:42:42.517Z,97194.68
2022-12-31T03:45:10.218Z,97222.34
2022-12-31T03:47:36.805Z,97223.05
2022-12-31T03:50:05.231Z,97226.16
2022-12-31T03:52:31.740Z,97228.75
2022-12-31T03:54:58.169Z,97220.99
2022-12-31T03:57:24.882Z,97218.08
2022-12-31T03:59:51.375Z,97219.37
2022-12-31T04:02:20.871Z,97224.48
2022-12-31T04:04:49.685Z,97226.27
2022-12-31T04:07:16.340Z,97228.39
2022-12-31T04:09:43.090Z,97233.80
2022-12-31T04:12:09.531Z,97233.27
2022-12-31T04:14:36.009Z,97230.68
2022-12-31T04:17:02.648Z,97227.80
2022-12-31T04:19:29.156Z,97232.84
2022-12-31T04:21:55.602Z,97238.23
2022-12-31T04:24:22.279Z,97235.72
2022-12-31T04:26:49.213Z,97235.25
2022-12-31T04:29:15.628Z,97237.69
2022-12-31T04:31:42.156Z,97238.40
2022-12-31T04:34:08.869Z,97243.90
2022-12-31T04:36:35.309Z,97242.50
2022-12-31T04:39:01.756Z,97238.98
2022-12-31T04:41:28.285Z,97242.61
2022-12-31T04:43:57.895Z,97250.50
2022-12-31T04:46:27.083Z,97243.41
2022-12-31T04:48:54.035Z,97233.89
2022-12-31T04:51:21.193Z,97239.80
2022-12-31T04:53:48.726Z,97243.33
2022-12-31T04:56:16.062Z,97248.66
2022-12-31T04:58:44.325Z,97247.67
2022-12-31T05:01:12.183Z,97247.83
2022-12-31T05:03:39.323Z,97256.70
2022-12-31T05:06:10.133Z,97262.00
2022-12-31T05:08:36.751Z,97262.95
2022-12-31T05:11:03.437Z,97259.02
2022-12-31T05:13:33.337Z,97254.61
2022-12-31T05:16:01.519Z,97248.35
2022-12-31T05:18:29.075Z,97248.27
2022-12-31T05:20:55.858Z,97259.52
2022-12-31T05:23:23.714Z,97270.05
2022-12-31T05:25:50.812Z,97270.98
2022-12-31T05:28:17.969Z,97276.28
2022-12-31T05:30:47.104Z,97275.06
2022-12-31T05:33:13.582Z,97275.70
2022-12-31T05:35:40.007Z,97264.24
2022-12-31T05:38:07.214Z,97259.25
2022-12-31T05:40:33.692Z,97259.05
2022-12-31T05:43:00.049Z,97264.97
2022-12-31T05:45:30.789Z,97275.24
2022-12-31T05:47:57.740Z,97270.57
2022-12-31T05:50:24.600Z,97273.27
2022-12-31T05:52:55.125Z,97277.55
2022-12-31T05:55:22.291Z,97276.79
2022-12-31T05:57:48.671Z,97279.09
2022-12-31T06:00:15.553Z,97278.35
2022-12-31T06:02:42.152Z,97278.30
2022-12-31T06:05:09.639Z,97275.14
2022-12-31T06:07:36.190Z,97274.44
2022-12-31T06:10:04.795Z,97273.40
2022-12-31T06:12:31.236Z,97272.52
2022-12-31T06:14:57.754Z,97277.73
2022-12-31T06:17:24.276Z,97279.27
2022-12-31T06:19:50.728Z,97280.41
2022-12-31T06:22:17.226Z,97286.48
2022-12-31T06:24:43.691Z,97291.27
2022-12-31T06:27:10.276Z,97297.27
2022-12-31T06:29:36.823Z,97306.66
2022-12-31T06:32:03.441Z,97306.21
2022-12-31T06:34:29.836Z,97305.39
2022-12-31T06:36:56.268Z,97307.70
2022-12-31T06:39:22.830Z,97315.94
2022-12-31T06:41:49.325Z,97310.36
2022-12-31T06:44:15.929Z,97306.21
2022-12-31T06:46:42.404Z,97311.58
2022-12-31T06:49:09.047Z,97310.91
2022-12-31T06:51:35.564Z,97318.64
2022-12-31T06:54:01.908Z,97319.04
2022-12-31T06:56:34.322Z,97319.60
2022-12-31T06:59:02.363Z,97318.80
2022-12-31T07:02:00.858Z,97320.41
2022-12-31T07:05:03.715Z,97324.91
2022-12-31T07:07:47.731Z,97322.69
2022-12-31T07:10:39.465Z,97319.42
2022-12-31T07:13:27.600Z,97320.66
2022-12-31T07:16:09.561Z,97328.27
2022-12-31T07:18:54.517Z,97331.61
2022-12-31T07:21:32.870Z,97341.23
2022-12-31T07:23:59.663Z,97341.42
2022-12-31T07:26:56.757Z,97344.39
2022-12-31T07:29:30.776Z,97351.21
2022-12-31T07:32:22.239Z,97347.86
2022-12-31T07:35:06.207Z,97350.77
2022-12-31T07:37:46.733Z,97345.84
2022-12-31T07:40:24.086Z,97346.23
2022-12-31T07:43:09.978Z,97341.67
2022-12-31T07:45:47.295Z,97342.77
2022-12-31T07:48:22.441Z,97342.23
2022-12-31T07:50:50.726Z,97349.61
2022-12-31T07:53:17.497Z,97360.77
2022-12-31T07:55:43.994Z,97361.02
2022-12-31T07:58:20.787Z,97358.56
2022-12-31T08:00:47.942Z,97359.15
2022-12-31T08:03:35.141Z,97355.61
2022-12-31T08:06:10.640Z,97349.98
2022-12-31T08:08:53.166Z,97352.57
2022-12-31T08:11:31.213Z,97354.10
2022-12-31T08:14:01.019Z,97354.89
2022-12-31T08:16:29.044Z,97358.56
2022-12-31T08:18:55.974Z,97360.79
2022-12-31T08:21:43.100Z,97359.51
2022-12-31T08:24:38.741Z,97361.33
2022-12-31T08:27:20.308Z,97365.27
2022-12-31T08:30:16.467Z,97365.80
2022-12-31T08:33:09.306Z,97375.87
2022-12-31T08:36:09.302Z,97374.12
2022-12-31T08:38:55.881Z,97371.96
2022-12-31T08:41:29.476Z,97369.80
2022-12-31T08:44:16.374Z,97375.74
2022-12-31T08:46:56.391Z,97371.10
2022-12-31T08:49:26.746Z,97365.63
2022-12-31T08:51:53.712Z,97367.77
2022-12-31T08:54:20.788Z,97379.33
2022-12-31T08:57:10.118Z,97380.48
2022-12-31T08:59:54.946Z,97368.69
2022-12-31T09:02:43.215Z,97370.59
2022-12-31T09:05:44.952Z,97372.55
2022-12-31T09:08:29.779Z,97365.14
2022-12-31T09:11:09.759Z,97361.85
2022-12-31T09:14:01.680Z,97361.75
2022-12-31T09:16:48.011Z,97360.04
2022-12-31T09:19:16.954Z,97372.42
2022-12-31T09:21:44.507Z,97372.77
2022-12-31T09:24:15.927Z,97371.46
2022-12-31T09:27:02.503Z,97364.61
2022-12-31T09:30:03.308Z,97358.32
2022-12-31T09:32:49.336Z,97358.13
2022-12-31T09:35:34.802Z,97360.60
2022-12-31T09:38:23.064Z,97365.20
2022-12-31T09:41:05.722Z,97362.25
2022-12-31T09:44:04.402Z,97364.35
2022-12-31T09:47:03.597Z,97359.83
2022-12-31T09:49:52.306Z,97361.77
2022-12-31T09:52:33.106Z,97361.66
2022-12-31T09:55:33.768Z,97351.54
2022-12-31T09:58:34.328Z,97347.35
2022-12-31T10:01:23.986Z,97354.70
2022-12-31T10:04:24.693Z,97352.38
2022-12-31T10:07:10.038Z,97347.30
2022-12-31T10:10:02.031Z,97348.83
2022-12-31T10:13:01.128Z,97346.31
2022-12-31T10:16:05.459Z,97344.21
2022-12-31T10:18:51.591Z,97345.05
2022-12-31T10:21:36.001Z,97348.08
2022-12-31T10:24:28.474Z,97347.67
2022-12-31T10:27:13.459Z,97336.33
2022-12-31T10:29:57.446Z,97335.84
2022-12-31T10:32:50.338Z,97333.98
2022-12-31T10:35:53.110Z,97345.00
2022-12-31T10:38:32.075Z,97329.23
2022-12-31T10:41:30.491Z,97329.45
2022-12-31T10:44:26.636Z,97333.98
2022-12-31T10:47:20.968Z,97339.36
2022-12-31T10:50:17.716Z,97339.13
2022-12-31T10:53:17.554Z,97348.65
2022-12-31T10:56:20.133Z,97343.43
2022-12-31T10:59:17.961Z,97335.88
2022-12-31T11:01:58.487Z,97332.59
2022-12-31T11:04:51.984Z,97315.89
2022-12-31T11:07:48.510Z,97310.90
2022-12-31T11:10:42.083Z,97308.66
2022-12-31T11:13:38.854Z,97301.99
2022-12-31T11:16:30.937Z,97309.33
2022-12-31T11:19:13.866Z,97305.32
2022-12-31T11:22:08.812Z,97300.91
2022-12-31T11:25:01.184Z,97302.48
2022-12-31T11:27:59.729Z,97310.29
2022-12-31T11:31:05.826Z,97297.32
2022-12-31T11:34:00.331Z,97302.59
2022-12-31T11:36:59.336Z,97294.66
2022-12-31T11:39:53.468Z,97301.67
2022-12-31T11:42:32.037Z,97304.06
2022-12-31T11:45:14.161Z,97307.80
2022-12-31T11:48:29.797Z,97298.04
2022-12-31T11:51:09.654Z,97293.77
2022-12-31T11:54:00.745Z,97292.93
2022-12-31T11:56:39.804Z,97289.40
2022-12-31T11:59:19.062Z,97283.61
2022-12-31T12:01:58.935Z,97283.28
2022-12-31T12:04:25.755Z,97285.05
2022-12-31T12:06:52.784Z,97283.98
2022-12-31T12:09:27.931Z,97280.33
2022-12-31T12:12:04.711Z,97287.32
2022-12-31T12:14:35.937Z,97285.09
2022-12-31T12:17:07.411Z,97290.73
2022-12-31T12:19:40.666Z,97297.67
2022-12-31T12:22:22.232Z,97295.52
2022-12-31T12:25:07.210Z,97294.54
2022-12-31T12:27:36.386Z,97310.52
2022-12-31T12:30:17.215Z,97306.17
2022-12-31T12:32:53.404Z,97308.11
2022-12-31T12:35:26.213Z,97307.35
2022-12-31T12:38:03.798Z,97306.81
2022-12-31T12:40:34.308Z,97308.42
2022-12-31T12:43:02.887Z,97308.46
2022-12-31T12:45:52.361Z,97310.48
2022-12-31T12:48:30.407Z,97313.55
2022-12-31T12:50:57.110Z,97312.98
2022-12-31T12:53:45.137Z,97308.66
2022-12-31T12:56:26.832Z,97309.59
2022-12-31T12:59:26.991Z,97308.75
2022-12-31T13:02:15.947Z,97315.96
2022-12-31T13:05:08.926Z,97326.60
2022-12-31T13:07:52.069Z,97327.46
2022-12-31T13:10:46.093Z,97330.34
2022-12-31T13:13:33.217Z,97337.45
2022-12-31T13:16:17.983Z,97341.08
2022-12-31T13:19:01.677Z,97339.52
2022-12-31T13:21:43.638Z,97343.91
2022-12-31T13:24:46.304Z,97344.96
2022-12-31T13:27:26.451Z,97343.97
2022-12-31T13:29:58.478Z,97345.46
2022-12-31T13:32:41.643Z,97348.90
2022-12-31T13:35:26.417Z,97351.73
2022-12-31T13:38:05.301Z,97350.16
2022-12-31T13:40:45.964Z,97348.79
2022-12-31T13:43:25.033Z,97348.17
2022-12-31T13:46:03.753Z,97343.48
2022-12-31T13:48:39.865Z,97340.58
2022-12-31T13:51:17.461Z,97334.36
2022-12-31T13:53:56.057Z,97338.45
2022-12-31T13:56:26.863Z,97340.45
2022-12-31T13:59:02.895Z,97344.05
2022-12-31T14:01:43.161Z,97354.93
2022-12-31T14:04:16.815Z,97357.22
2022-12-31T14:07:12.140Z,97355.89
2022-12-31T14:09:38.793Z,97354.92
2022-12-31T14:12:20.685Z,97356.29
2022-12-31T14:15:13.836Z,97359.31
2022-12-31T14:17:49.891Z,97364.70
2022-12-31T14:20:33.017Z,97371.14
2022-12-31T14:23:17.693Z,97369.88
2022-12-31T14:25:50.694Z,97370.31
2022-12-31T14:28:23.287Z,97368.68
2022-12-31T14:30:57.447Z,97367.25
2022-12-31T14:33:37.190Z,97367.01
2022-12-31T14:36:19.161Z,97364.06
2022-12-31T14:39:25.403Z,97355.08
2022-12-31T14:42:10.556Z,97358.45
2022-12-31T14:45:02.229Z,97361.27
2022-12-31T14:47:43.597Z,97350.89
2022-12-31T14:50:15.190Z,97350.21
2022-12-31T14:52:52.928Z,97348.16
2022-12-31T14:55:25.912Z,97346.36
2022-12-31T14:58:26.324Z,97352.55
2022-12-31T15:00:50.695Z,97362.30
2022-12-31T15:03:25.282Z,97355.28
2022-12-31T15:06:14.407Z,97354.75
2022-12-31T15:09:07.610Z,97355.34
2022-12-31T15:11:45.538Z,97363.30
2022-12-31T15:14:37.831Z,97365.75
2022-12-31T15:17:34.341Z,97368.03
2022-12-31T15:20:34.730Z,97363.44
2022-12-31T15:23:01.634Z,97364.11
2022-12-31T15:25:41.373Z,97361.64
2022-12-31T15:28:29.155Z,97360.61
2022-12-31T15:31:04.172Z,97361.69
2022-12-31T15:33:38.596Z,97358.38
2022-12-31T15:36:16.339Z,97360.73
2022-12-31T15:38:43.846Z,97368.59
2022-12-31T15:41:25.838Z,97378.84
2022-12-31T15:44:06.871Z,97388.34
2022-12-31T15:46:41.375Z,97394.34
2022-12-31T15:49:16.277Z,97400.33
2022-12-31T15:51:47.772Z,97403.33
2022-12-31T15:54:34.367Z,97399.80
2022-12-31T15:57:07.187Z,97404.55
2022-12-31T15:59:37.471Z,97405.64
2022-12-31T16:02:04.178Z,97400.33
2022-12-31T16:04:33.994Z,97400.77
2022-12-31T16:07:03.492Z,97404.89
2022-12-31T16:09:35.381Z,97406.34
2022-12-31T16:12:09.480Z,97406.55
2022-12-31T16:14:39.892Z,97410.38
2022-12-31T16:17:21.253Z,97411.48
2022-12-31T16:19:47.690Z,97410.61
2022-12-31T16:22:17.470Z,97407.52
2022-12-31T16:25:19.465Z,97403.40
2022-12-31T16:27:33.683Z,97404.58
2022-12-31T16:30:06.506Z,97404.63
2022-12-31T16:32:37.377Z,97413.06
2022-12-31T16:35:23.861Z,97412.98
2022-12-31T16:38:10.426Z,97415.55
2022-12-31T16:40:38.130Z,97424.76
2022-12-31T16:43:23.398Z,97435.15
2022-12-31T16:45:50.251Z,97430.89
2022-12-31T16:48:19.562Z,97433.04
2022-12-31T16:50:49.871Z,97432.55
2022-12-31T16:53:23.204Z,97438.55
2022-12-31T16:55:55.192Z,97442.08
2022-12-31T16:58:30.027Z,97449.95
2022-12-31T17:01:11.193Z,97453.23
2022-12-31T17:03:41.437Z,97448.65
2022-12-31T17:06:15.596Z,97446.95
2022-12-31T17:08:49.891Z,97450.19
2022-12-31T17:11:23.755Z,97451.17
2022-12-31T17:13:55.375Z,97451.96
2022-12-31T17:16:22.907Z,97449.98
2022-12-31T17:18:50.419Z,97453.07
2022-12-31T17:21:18.018Z,97454.57
2022-12-31T17:23:52.945Z,97456.75
2022-12-31T17:26:26.070Z,97455.27
2022-12-31T17:28:54.959Z,97459.96
2022-12-31T17:31:32.759Z,97461.69
2022-12-31T17:34:20.348Z,97467.67
2022-12-31T17:36:59.554Z,97468.71
2022-12-31T17:39:38.642Z,97479.04
2022-12-31T17:42:07.149Z,97477.67
2022-12-31T17:44:37.740Z,97484.35
2022-12-31T17:47:04.436Z,97483.41
2022-12-31T17:49:31.433Z,97488.45
2022-12-31T17:51:58.023Z,97485.05
2022-12-31T17:54:24.532Z,97483.27
2022-12-31T17:56:52.100Z,97482.91
2022-12-31T17:59:28.920Z,97477.00
2022-12-31T18:02:00.564Z,97478.25
2022-12-31T18:04:27.141Z,97478.38
2022-12-31T18:06:53.548Z,97478.64
2022-12-31T18:09:20.242Z,97470.10
2022-12-31T18:11:46.944Z,97459.33
2022-12-31T18:14:15.533Z,97453.98
2022-12-31T18:16:42.040Z,97453.70
2022-12-31T18:19:23.634Z,97455.45
2022-12-31T18:22:00.084Z,97455.50
2022-12-31T18:24:26.615Z,97448.98
2022-12-31T18:26:53.434Z,97446.77
2022-12-31T18:29:20.292Z,97445.79
2022-12-31T18:32:04.781Z,97442.43
2022-12-31T18:34:31.484Z,97438.68
2022-12-31T18:36:58.750Z,97439.38
2022-12-31T18:39:25.181Z,97440.86
2022-12-31T18:41:51.721Z,97438.55
2022-12-31T18:44:18.164Z,97447.65
2022-12-31T18:46:44.627Z,97452.70
2022-12-31T18:49:11.277Z,97443.80
2022-12-31T18:51:37.736Z,97437.02
2022-12-31T18:54:04.566Z,97435.91
2022-12-31T18:56:31.424Z,97437.48
2022-12-31T18:58:59.028Z,97454.48
2022-12-31T19:01:33.441Z,97454.43
2022-12-31T19:04:03.207Z,97451.55
2022-12-31T19:06:29.956Z,97449.85
2022-12-31T19:08:56.468Z,97452.36
2022-12-31T19:11:23.417Z,97453.38
2022-12-31T19:13:49.946Z,97449.83
2022-12-31T19:16:17.296Z,97449.62
2022-12-31T19:18:45.465Z,97445.55
2022-12-31T19:21:21.898Z,97444.62
2022-12-31T19:23:49.862Z,97438.95
2022-12-31T19:26:19.253Z,97437.78
2022-12-31T19:28:46.829Z,97440.31
2022-12-31T19:31:13.619Z,97446.55
2022-12-31T19:33:41.341Z,97451.66
2022-12-31T19:36:15.423Z,97445.05
2022-12-31T19:38:42.752Z,97442.99
2022-12-31T19:41:15.342Z,97438.38
2022-12-31T19:43:41.950Z,97437.90
2022-12-31T19:46:13.005Z,97440.66
2022-12-31T19:48:39.648Z,97437.67
2022-12-31T19:51:09.778Z,97442.08
2022-12-31T19:53:36.327Z,97448.95
2022-12-31T19:56:03.516Z,97447.27
2022-12-31T19:58:31.260Z,97448.06
2022-12-31T20:01:02.949Z,97445.45
2022-12-31T20:03:31.923Z,97447.42
2022-12-31T20:06:01.821Z,97451.19
2022-12-31T20:08:28.382Z,97449.84
2022-12-31T20:10:58.077Z,97447.80
2022-12-31T20:13:26.259Z,97450.11
2022-12-31T20:15:53.591Z,97453.02
2022-12-31T20:18:22.213Z,97453.41
2022-12-31T20:20:55.372Z,97454.79
2022-12-31T20:23:22.381Z,97449.71
2022-12-31T20:26:04.159Z,97449.76
2022-12-31T20:28:30.766Z,97442.98
2022-12-31T20:30:57.391Z,97444.71
2022-12-31T20:33:23.948Z,97448.90
2022-12-31T20:35:50.777Z,97453.95
2022-12-31T20:38:17.277Z,97463.43
2022-12-31T20:40:46.973Z,97464.37
2022-12-31T20:43:13.800Z,97460.61
2022-12-31T20:45:41.278Z,97460.39
2022-12-31T20:48:07.922Z,97462.20
2022-12-31T20:50:34.633Z,97456.98
2022-12-31T20:53:01.397Z,97452.35
2022-12-31T20:55:30.099Z,97453.38
2022-12-31T20:57:56.672Z,97461.31
2022-12-31T21:00:23.237Z,97458.95
2022-12-31T21:02:59.005Z,97456.03
2022-12-31T21:05:34.030Z,97461.95
2022-12-31T21:08:00.743Z,97472.00
2022-12-31T21:10:27.187Z,97472.51
2022-12-31T21:12:53.717Z,97475.92
2022-12-31T21:15:20.885Z,97476.58
2022-12-31T21:17:47.504Z,97477.96
2022-12-31T21:20:14.048Z,97476.18
2022-12-31T21:22:40.529Z,97480.30
2022-12-31T21:25:07.367Z,97481.81
2022-12-31T21:27:35.230Z,97488.99
2022-12-31T21:30:18.128Z,97491.85
2022-12-31T21:32:45.882Z,97487.84
2022-12-31T21:35:41.576Z,97501.34
2022-12-31T21:38:01.049Z,97508.34
2022-12-31T21:40:28.886Z,97508.02
2022-12-31T21:42:55.384Z,97502.86
2022-12-31T21:45:22.261Z,97509.42
2022-12-31T21:47:59.777Z,97521.41
2022-12-31T21:50:26.428Z,97519.04
2022-12-31T21:52:52.833Z,97519.54
2022-12-31T21:55:30.312Z,97522.80
2022-12-31T21:58:25.426Z,97521.54
2022-12-31T22:01:00.699Z,97523.36
2022-12-31T22:03:28.044Z,97520.31
2022-12-31T22:06:02.307Z,97528.08
2022-12-31T22:08:30.202Z,97532.14
2022-12-31T22:10:57.071Z,97534.27
2022-12-31T22:13:23.683Z,97529.08
2022-12-31T22:15:58.754Z,97524.88
2022-12-31T22:18:29.303Z,97531.95
2022-12-31T22:21:05.622Z,97538.88
2022-12-31T22:23:33.476Z,97539.77
2022-12-31T22:26:01.144Z,97538.69
2022-12-31T22:28:38.073Z,97536.93
2022-12-31T22:31:16.703Z,97536.14
2022-12-31T22:33:44.059Z,97547.43
2022-12-31T22:36:14.462Z,97548.38
2022-12-31T22:38:44.971Z,97541.12
2022-12-31T22:41:17.528Z,97539.15
2022-12-31T22:43:51.748Z,97538.23
2022-12-31T22:46:21.930Z,97536.27
2022-12-31T22:48:49.133Z,97538.48
2022-12-31T22:51:17.310Z,97536.55
2022-12-31T22:53:44.148Z,97530.55
2022-12-31T22:56:13.852Z,97535.58
2022-12-31T22:58:40.700Z,97539.80
2022-12-31T23:01:15.048Z,97542.00
2022-12-31T23:03:41.826Z,97542.67
2022-12-31T23:06:08.488Z,97550.71
2022-12-31T23:08:34.959Z,97549.96
2022-12-31T23:11:05.067Z,97548.91
2022-12-31T23:13:55.250Z,97549.55
2022-12-31T23:16:35.568Z,97543.99
2022-12-31T23:19:15.583Z,97545.05
2022-12-31T23:21:55.783Z,97546.94
2022-12-31T23:24:26.705Z,97539.18
2022-12-31T23:26:56.467Z,97545.61
2022-12-31T23:29:24.612Z,97544.35
2022-12-31T23:31:52.238Z,97549.14
2022-12-31T23:34:18.896Z,97553.05
2022-12-31T23:36:45.274Z,97554.95
2022-12-31T23:39:12.733Z,97555.50
2022-12-31T23:41:39.661Z,97560.68
2022-12-31T23:44:06.288Z,97569.67
2022-12-31T23:46:32.905Z,97573.19
2022-12-31T23:48:59.457Z,97575.09
2022-12-31T23:51:25.932Z,97580.86
2022-12-31T23:53:52.341Z,97582.13
2022-12-31T23:56:23.650Z,97575.18
2022-12-31T23:58:55.241Z,97573.11
